createdAt,value
2017-07-20T00:01:13.644Z,3.60
2017-07-20T00:03:41.262Z,4.10
2017-07-20T00:06:08.986Z,3.87
2017-07-20T00:08:36.612Z,3.67
2017-07-20T00:11:04.279Z,4.60
2017-07-20T00:13:31.908Z,3.83
2017-07-20T00:15:59.594Z,3.70
2017-07-20T00:18:27.198Z,3.90
2017-07-20T00:20:54.855Z,4.27
2017-07-20T00:23:22.453Z,4.20
2017-07-20T00:25:50.096Z,4.40
2017-07-20T00:28:18.043Z,3.77
2017-07-20T00:30:45.695Z,3.87
2017-07-20T00:33:13.323Z,3.93
2017-07-20T00:35:40.966Z,4.10
2017-07-20T00:38:08.584Z,4.00
2017-07-20T00:40:36.234Z,3.87
2017-07-20T00:43:03.861Z,3.77
2017-07-20T00:45:31.583Z,4.33
2017-07-20T00:47:59.228Z,3.77
2017-07-20T00:50:26.856Z,3.90
2017-07-20T00:52:54.505Z,3.63
2017-07-20T00:55:22.123Z,3.97
2017-07-20T00:57:49.721Z,5.00
2017-07-20T01:00:17.342Z,4.73
2017-07-20T01:02:45.060Z,4.67
2017-07-20T01:05:12.676Z,4.70
2017-07-20T01:07:40.320Z,4.03
2017-07-20T01:10:07.949Z,4.20
2017-07-20T01:12:35.758Z,4.07
2017-07-20T01:15:03.391Z,3.93
2017-07-20T01:17:31.063Z,4.00
2017-07-20T01:19:58.684Z,4.13
2017-07-20T01:22:26.306Z,4.13
2017-07-20T01:24:53.919Z,4.63
2017-07-20T01:27:21.666Z,3.60
2017-07-20T01:29:49.292Z,4.20
2017-07-20T01:32:16.926Z,4.33
2017-07-20T01:34:44.552Z,4.50
2017-07-20T01:37:12.209Z,4.23
2017-07-20T01:39:40.426Z,3.97
2017-07-20T01:42:08.060Z,4.30
2017-07-20T01:44:35.671Z,4.73
2017-07-20T01:47:03.295Z,4.40
2017-07-20T01:49:30.887Z,3.50
2017-07-20T01:51:58.527Z,4.27
2017-07-20T01:54:26.313Z,3.73
2017-07-20T01:56:53.957Z,3.50
2017-07-20T01:59:21.612Z,3.83
2017-07-20T02:01:49.380Z,3.37
2017-07-20T02:04:16.977Z,3.70
2017-07-20T02:06:44.661Z,4.50
2017-07-20T02:09:12.298Z,4.03
2017-07-20T02:11:39.939Z,3.47
2017-07-20T02:14:07.688Z,4.10
2017-07-20T02:16:35.386Z,4.07
2017-07-20T02:19:03.015Z,4.10
2017-07-20T02:21:30.672Z,4.27
2017-07-20T02:23:58.286Z,3.77
2017-07-20T02:26:25.931Z,3.33
2017-07-20T02:28:53.548Z,3.93
2017-07-20T02:31:21.445Z,3.57
2017-07-20T02:33:49.075Z,3.50
2017-07-20T02:36:16.686Z,3.50
2017-07-20T02:38:44.326Z,3.90
2017-07-20T02:41:11.935Z,3.60
2017-07-20T02:43:39.587Z,4.10
2017-07-20T02:46:07.286Z,4.60
2017-07-20T02:48:34.985Z,3.53
2017-07-20T02:51:02.578Z,4.20
2017-07-20T02:53:30.262Z,3.90
2017-07-20T02:55:57.871Z,4.27
2017-07-20T02:58:25.527Z,4.20
2017-07-20T03:00:53.175Z,4.53
2017-07-20T03:03:20.813Z,4.20
2017-07-20T03:05:48.835Z,4.67
2017-07-20T03:08:16.471Z,3.90
2017-07-20T03:10:44.313Z,4.50
2017-07-20T03:13:12.094Z,3.90
2017-07-20T03:15:39.752Z,4.20
2017-07-20T03:18:08.071Z,5.03
2017-07-20T03:20:35.690Z,4.70
2017-07-20T03:23:03.338Z,4.20
2017-07-20T03:25:31.155Z,4.17
2017-07-20T03:27:58.795Z,4.63
2017-07-20T03:30:26.404Z,4.37
2017-07-20T03:32:54.114Z,3.50
2017-07-20T03:35:22.066Z,4.93
2017-07-20T03:37:49.684Z,4.37
2017-07-20T03:40:17.292Z,5.00
2017-07-20T03:42:44.955Z,4.70
2017-07-20T03:45:12.578Z,4.23
2017-07-20T03:47:40.238Z,4.60
2017-07-20T03:50:07.833Z,4.43
2017-07-20T03:52:35.509Z,4.30
2017-07-20T03:55:03.137Z,4.30
2017-07-20T03:57:30.792Z,4.50
2017-07-20T03:59:58.539Z,4.87
2017-07-20T04:02:26.581Z,4.10
2017-07-20T04:04:54.375Z,4.30
2017-07-20T04:07:22.044Z,4.70
2017-07-20T04:09:49.703Z,4.57
2017-07-20T04:12:17.308Z,4.33
2017-07-20T04:14:44.939Z,4.23
2017-07-20T04:17:12.687Z,5.07
2017-07-20T04:19:40.460Z,4.60
2017-07-20T04:22:08.221Z,4.70
2017-07-20T04:24:35.868Z,4.57
2017-07-20T04:27:03.575Z,4.83
2017-07-20T04:29:31.220Z,4.03
2017-07-20T04:31:58.842Z,4.90
2017-07-20T04:34:26.502Z,5.20
2017-07-20T04:36:54.131Z,4.73
2017-07-20T04:39:21.791Z,4.93
2017-07-20T04:41:50.499Z,5.30
2017-07-20T04:44:18.259Z,5.17
2017-07-20T04:46:45.958Z,4.47
2017-07-20T04:49:13.593Z,5.53
2017-07-20T04:51:41.258Z,4.37
2017-07-20T04:54:08.907Z,4.77
2017-07-20T04:56:36.559Z,4.50
2017-07-20T04:59:07.584Z,8.20
2017-07-20T05:01:35.318Z,5.70
2017-07-20T05:04:03.071Z,5.87
2017-07-20T05:06:30.689Z,5.50
2017-07-20T05:08:58.421Z,4.97
2017-07-20T05:11:26.191Z,5.30
2017-07-20T05:13:53.857Z,4.60
2017-07-20T05:16:21.677Z,5.03
2017-07-20T05:18:49.315Z,5.13
2017-07-20T05:21:16.921Z,4.50
2017-07-20T05:23:44.562Z,4.90
2017-07-20T05:26:12.185Z,5.20
2017-07-20T05:28:39.843Z,5.10
2017-07-20T05:31:07.448Z,6.60
2017-07-20T05:33:35.502Z,4.07
2017-07-20T05:36:03.120Z,4.80
2017-07-20T05:38:30.734Z,4.23
2017-07-20T05:40:58.362Z,4.40
2017-07-20T05:43:25.995Z,4.40
2017-07-20T05:45:53.642Z,4.63
2017-07-20T05:48:21.275Z,4.27
2017-07-20T05:50:49.111Z,4.00
2017-07-20T05:53:16.740Z,3.90
2017-07-20T05:55:44.537Z,5.20
2017-07-20T05:58:12.162Z,4.07
2017-07-20T06:00:39.821Z,4.30
2017-07-20T06:03:07.432Z,4.73
2017-07-20T06:05:35.084Z,4.43
2017-07-20T06:08:02.736Z,4.57
2017-07-20T06:10:30.411Z,4.37
2017-07-20T06:12:58.077Z,4.33
2017-07-20T06:15:25.727Z,4.00
2017-07-20T06:17:53.350Z,4.90
2017-07-20T06:20:21.014Z,4.30
2017-07-20T06:22:48.658Z,3.73
2017-07-20T06:25:16.284Z,3.80
2017-07-20T06:27:43.968Z,4.40
2017-07-20T06:30:23.224Z,4.33
2017-07-20T06:32:50.875Z,4.97
2017-07-20T06:35:18.549Z,4.40
2017-07-20T06:37:46.178Z,3.70
2017-07-20T06:40:13.843Z,3.80
2017-07-20T06:42:41.455Z,3.87
2017-07-20T06:45:09.096Z,3.43
2017-07-20T06:47:36.744Z,3.30
2017-07-20T06:50:04.393Z,4.20
2017-07-20T06:52:32.027Z,3.47
2017-07-20T06:54:59.724Z,3.83
2017-07-20T06:57:27.431Z,3.67
2017-07-20T06:59:55.092Z,3.40
2017-07-20T07:02:22.734Z,3.37
2017-07-20T07:04:50.471Z,4.27
2017-07-20T07:07:18.118Z,4.10
2017-07-20T07:09:46.080Z,3.90
2017-07-20T07:12:13.724Z,4.00
2017-07-20T07:14:41.360Z,3.83
2017-07-20T07:17:09.061Z,3.80
2017-07-20T07:19:36.688Z,3.60
2017-07-20T07:22:04.392Z,3.70
2017-07-20T07:24:32.033Z,4.10
2017-07-20T07:26:59.691Z,4.33
2017-07-20T07:29:27.316Z,3.87
2017-07-20T07:31:54.983Z,3.67
2017-07-20T07:34:22.609Z,3.67
2017-07-20T07:36:50.237Z,3.53
2017-07-20T07:39:17.875Z,3.87
2017-07-20T07:41:45.523Z,3.57
2017-07-20T07:44:13.159Z,3.83
2017-07-20T07:46:40.894Z,3.80
2017-07-20T07:49:08.545Z,3.83
2017-07-20T07:51:36.207Z,4.20
2017-07-20T07:54:03.869Z,3.73
2017-07-20T07:56:31.514Z,3.80
2017-07-20T07:58:59.125Z,4.30
2017-07-20T08:01:26.759Z,3.77
2017-07-20T08:03:54.434Z,3.90
2017-07-20T08:06:22.259Z,4.57
2017-07-20T08:08:49.884Z,3.97
2017-07-20T08:11:17.553Z,4.10
2017-07-20T08:13:45.180Z,3.90
2017-07-20T08:16:12.958Z,3.90
2017-07-20T08:18:40.579Z,4.30
2017-07-20T08:21:08.206Z,4.10
2017-07-20T08:23:35.897Z,3.90
2017-07-20T08:26:03.549Z,5.17
2017-07-20T08:28:31.188Z,4.17
2017-07-20T08:30:58.842Z,4.30
2017-07-20T08:33:26.468Z,3.70
2017-07-20T08:35:54.154Z,3.73
2017-07-20T08:38:21.807Z,3.43
2017-07-20T08:40:49.618Z,4.27
2017-07-20T08:43:17.275Z,4.40
2017-07-20T08:45:44.894Z,4.00
2017-07-20T08:48:12.598Z,4.00
2017-07-20T08:50:40.203Z,3.93
2017-07-20T08:53:07.961Z,3.50
2017-07-20T08:55:35.603Z,4.17
2017-07-20T08:58:03.306Z,3.40
2017-07-20T09:00:30.944Z,4.00
2017-07-20T09:02:58.600Z,3.63
2017-07-20T09:05:26.319Z,4.00
2017-07-20T09:07:53.962Z,4.20
2017-07-20T09:10:21.878Z,3.50
2017-07-20T09:12:49.544Z,3.40
2017-07-20T09:15:17.162Z,3.73
2017-07-20T09:17:44.802Z,3.70
2017-07-20T09:20:12.442Z,3.60
2017-07-20T09:22:40.143Z,4.53
2017-07-20T09:25:07.785Z,3.67
2017-07-20T09:27:35.465Z,3.90
2017-07-20T09:30:03.291Z,3.70
2017-07-20T09:32:31.025Z,4.07
2017-07-20T09:34:58.666Z,4.20
2017-07-20T09:37:26.668Z,4.13
2017-07-20T09:39:54.315Z,4.17
2017-07-20T09:42:21.921Z,3.60
2017-07-20T09:44:49.519Z,3.73
2017-07-20T09:47:17.156Z,3.80
2017-07-20T09:49:45.688Z,4.10
2017-07-20T09:52:13.325Z,4.60
2017-07-20T09:54:41.014Z,4.33
2017-07-20T09:57:08.751Z,4.23
2017-07-20T09:59:36.401Z,3.90
2017-07-20T10:02:04.236Z,3.70
2017-07-20T10:04:31.859Z,4.03
2017-07-20T10:06:59.851Z,3.60
2017-07-20T10:09:27.597Z,3.80
2017-07-20T10:11:55.294Z,3.80
2017-07-20T10:14:22.942Z,3.80
2017-07-20T10:16:50.637Z,4.33
2017-07-20T10:19:18.498Z,3.67
2017-07-20T10:21:46.153Z,4.10
2017-07-20T10:24:13.817Z,4.27
2017-07-20T10:26:41.454Z,4.10
2017-07-20T10:29:09.148Z,4.13
2017-07-20T10:31:36.783Z,3.60
2017-07-20T10:34:04.474Z,3.70
2017-07-20T10:36:32.127Z,3.70
2017-07-20T10:38:59.789Z,3.03
2017-07-20T10:41:27.401Z,3.23
2017-07-20T10:43:55.063Z,3.50
2017-07-20T10:46:22.708Z,3.43
2017-07-20T10:48:50.484Z,3.13
2017-07-20T10:51:18.163Z,2.80
2017-07-20T10:53:45.811Z,3.50
2017-07-20T10:56:13.465Z,3.60
2017-07-20T10:58:41.118Z,3.07
2017-07-20T11:01:08.826Z,3.13
2017-07-20T11:03:36.474Z,3.20
2017-07-20T11:06:04.105Z,2.60
2017-07-20T11:08:31.754Z,3.47
2017-07-20T11:10:59.415Z,3.03
2017-07-20T11:13:27.079Z,2.30
2017-07-20T11:15:54.807Z,3.20
2017-07-20T11:18:22.463Z,3.67
2017-07-20T11:20:50.154Z,3.10
2017-07-20T11:23:17.791Z,2.60
2017-07-20T11:25:45.479Z,2.40
2017-07-20T11:28:13.272Z,2.40
2017-07-20T11:30:40.897Z,2.93
2017-07-20T11:33:08.567Z,2.73
2017-07-20T11:35:36.280Z,2.90
2017-07-20T11:38:03.958Z,2.50
2017-07-20T11:40:31.589Z,2.60
2017-07-20T11:42:59.217Z,2.50
2017-07-20T11:45:26.906Z,3.50
2017-07-20T11:47:54.541Z,4.73
2017-07-20T11:50:22.260Z,3.20
2017-07-20T11:52:49.968Z,2.63
2017-07-20T11:55:17.619Z,2.80
2017-07-20T11:57:45.323Z,2.90
2017-07-20T12:00:14.054Z,3.53
2017-07-20T12:02:41.679Z,3.23
2017-07-20T12:05:09.393Z,2.90
2017-07-20T12:07:37.029Z,5.13
2017-07-20T12:10:04.831Z,3.43
2017-07-20T12:12:32.482Z,3.43
2017-07-20T12:15:00.365Z,3.10
2017-07-20T12:17:28.128Z,3.10
2017-07-20T12:19:55.825Z,2.27
2017-07-20T12:22:23.453Z,2.93
2017-07-20T12:24:51.092Z,3.03
2017-07-20T12:27:18.733Z,3.03
2017-07-20T12:29:46.383Z,2.50
2017-07-20T12:32:14.071Z,2.80
2017-07-20T12:34:41.782Z,2.60
2017-07-20T12:37:09.551Z,3.03
2017-07-20T12:39:37.275Z,2.67
2017-07-20T12:42:04.910Z,3.00
2017-07-20T12:44:32.609Z,3.10
2017-07-20T12:47:00.241Z,2.57
2017-07-20T12:49:27.905Z,2.93
2017-07-20T12:51:55.544Z,3.20
2017-07-20T12:54:23.258Z,3.00
2017-07-20T12:56:50.872Z,2.70
2017-07-20T12:59:18.593Z,3.00
2017-07-20T13:01:46.257Z,3.03
2017-07-20T13:04:14.032Z,2.70
2017-07-20T13:06:41.715Z,3.50
2017-07-20T13:09:09.336Z,3.40
2017-07-20T13:11:37.040Z,3.20
2017-07-20T13:14:04.699Z,2.83
2017-07-20T13:16:32.409Z,2.97
2017-07-20T13:19:00.044Z,3.00
2017-07-20T13:21:27.792Z,2.90
2017-07-20T13:23:55.451Z,2.63
2017-07-20T13:26:23.131Z,2.10
2017-07-20T13:28:50.882Z,2.50
2017-07-20T13:31:18.535Z,2.23
2017-07-20T13:33:46.222Z,3.20
2017-07-20T13:36:13.960Z,2.67
2017-07-20T13:38:41.725Z,2.80
2017-07-20T13:41:09.394Z,2.97
2017-07-20T13:43:37.047Z,2.73
2017-07-20T13:46:04.879Z,2.77
2017-07-20T13:48:32.511Z,2.87
2017-07-20T13:51:00.164Z,3.17
2017-07-20T13:53:27.817Z,2.50
2017-07-20T13:55:55.460Z,2.20
2017-07-20T13:58:23.087Z,2.53
2017-07-20T14:00:50.771Z,3.37
2017-07-20T14:03:18.406Z,2.50
2017-07-20T14:05:46.076Z,2.73
2017-07-20T14:08:13.700Z,2.77
2017-07-20T14:10:41.355Z,2.73
2017-07-20T14:13:08.976Z,3.57
2017-07-20T14:15:36.765Z,2.47
2017-07-20T14:18:04.408Z,2.67
2017-07-20T14:20:32.160Z,2.40
2017-07-20T14:22:59.917Z,3.27
2017-07-20T14:25:27.577Z,2.20
2017-07-20T14:27:55.219Z,2.30
2017-07-20T14:30:22.972Z,2.13
2017-07-20T14:32:50.891Z,2.00
2017-07-20T14:35:18.804Z,1.90
2017-07-20T14:37:46.449Z,2.07
2017-07-20T14:40:14.147Z,1.70
2017-07-20T14:42:41.964Z,2.17
2017-07-20T14:45:09.648Z,1.50
2017-07-20T14:47:37.318Z,1.50
2017-07-20T14:50:04.958Z,1.80
2017-07-20T14:52:32.646Z,1.50
2017-07-20T14:55:00.283Z,1.67
2017-07-20T14:57:27.934Z,1.90
2017-07-20T14:59:55.565Z,1.70
2017-07-20T15:02:23.217Z,1.87
2017-07-20T15:04:50.838Z,2.00
2017-07-20T15:07:18.503Z,1.70
2017-07-20T15:09:46.142Z,1.70
2017-07-20T15:12:13.950Z,2.13
2017-07-20T15:14:41.580Z,1.77
2017-07-20T15:17:09.275Z,2.07
2017-07-20T15:19:36.912Z,1.97
2017-07-20T15:22:04.587Z,1.60
2017-07-20T15:24:32.340Z,2.10
2017-07-20T15:27:00.003Z,2.10
2017-07-20T15:29:27.639Z,2.07
2017-07-20T15:31:55.418Z,2.23
2017-07-20T15:34:23.097Z,2.20
2017-07-20T15:36:50.775Z,2.10
2017-07-20T15:39:18.459Z,1.97
2017-07-20T15:41:46.888Z,2.43
2017-07-20T15:44:14.625Z,2.20
2017-07-20T15:46:42.268Z,2.00
2017-07-20T15:49:09.902Z,2.10
2017-07-20T15:51:37.745Z,2.60
2017-07-20T15:54:05.546Z,2.13
2017-07-20T15:56:33.224Z,2.67
2017-07-20T15:59:00.867Z,2.53
2017-07-20T16:01:28.531Z,1.90
2017-07-20T16:03:56.330Z,2.10
2017-07-20T16:06:23.984Z,2.10
2017-07-20T16:08:51.635Z,1.87
2017-07-20T16:11:19.257Z,2.00
2017-07-20T16:13:47.020Z,1.70
2017-07-20T16:16:14.702Z,2.37
2017-07-20T16:18:42.458Z,2.10
2017-07-20T16:21:10.178Z,2.20
2017-07-20T16:23:37.959Z,2.27
2017-07-20T16:26:05.575Z,2.30
2017-07-20T16:28:33.215Z,2.20
2017-07-20T16:31:00.874Z,2.20
2017-07-20T16:33:28.542Z,2.10
2017-07-20T16:35:56.163Z,2.27
2017-07-20T16:38:23.810Z,2.03
2017-07-20T16:40:51.438Z,2.30
2017-07-20T16:43:19.523Z,2.50
2017-07-20T16:45:47.156Z,2.40
2017-07-20T16:48:15.406Z,2.20
2017-07-20T16:50:43.062Z,2.50
2017-07-20T16:53:10.842Z,2.50
2017-07-20T16:55:38.471Z,2.40
2017-07-20T16:58:06.130Z,2.00
2017-07-20T17:00:33.889Z,2.23
2017-07-20T17:03:01.531Z,2.13
2017-07-20T17:05:29.190Z,2.60
2017-07-20T17:07:58.491Z,2.43
2017-07-20T17:10:26.133Z,2.43
2017-07-20T17:12:53.920Z,2.47
2017-07-20T17:15:21.613Z,2.37
2017-07-20T17:17:49.363Z,3.23
2017-07-20T17:20:17.033Z,2.37
2017-07-20T17:22:44.659Z,2.50
2017-07-20T17:25:12.585Z,2.77
2017-07-20T17:27:40.206Z,2.67
2017-07-20T17:30:07.826Z,2.83
2017-07-20T17:32:35.481Z,2.83
2017-07-20T17:35:03.111Z,2.73
2017-07-20T17:37:30.915Z,3.30
2017-07-20T17:39:58.612Z,3.10
2017-07-20T17:42:26.300Z,2.93
2017-07-20T17:44:54.383Z,2.90
2017-07-20T17:47:22.311Z,2.70
2017-07-20T17:49:49.915Z,2.70
2017-07-20T17:52:17.544Z,2.90
2017-07-20T17:54:45.251Z,3.10
2017-07-20T17:57:13.042Z,3.30
2017-07-20T17:59:40.727Z,3.37
2017-07-20T18:02:08.346Z,5.90
2017-07-20T18:04:36.020Z,8.20
2017-07-20T18:07:05.172Z,4.90
2017-07-20T18:09:32.862Z,4.20
2017-07-20T18:12:00.684Z,3.50
2017-07-20T18:14:28.377Z,2.87
2017-07-20T18:16:56.132Z,3.20
2017-07-20T18:19:23.982Z,3.40
2017-07-20T18:21:51.741Z,3.00
2017-07-20T18:24:19.465Z,3.37
2017-07-20T18:26:47.179Z,3.33
2017-07-20T18:29:15.131Z,3.40
2017-07-20T18:31:43.052Z,3.70
2017-07-20T18:34:10.738Z,3.53
2017-07-20T18:36:38.400Z,3.30
2017-07-20T18:39:06.382Z,3.60
2017-07-20T18:41:34.455Z,3.93
2017-07-20T18:44:02.163Z,3.53
2017-07-20T18:46:30.276Z,3.10
2017-07-20T18:48:57.949Z,4.73
2017-07-20T18:51:25.874Z,4.00
2017-07-20T18:53:53.511Z,4.20
2017-07-20T18:56:21.543Z,3.70
2017-07-20T18:58:49.220Z,3.60
2017-07-20T19:01:16.845Z,4.00
2017-07-20T19:03:44.504Z,3.90
2017-07-20T19:06:12.274Z,4.47
2017-07-20T19:08:40.056Z,4.00
2017-07-20T19:11:12.249Z,4.60
2017-07-20T19:13:39.938Z,4.70
2017-07-20T19:16:07.674Z,4.80
2017-07-20T19:18:35.323Z,4.80
2017-07-20T19:21:02.994Z,4.80
2017-07-20T19:23:30.649Z,3.80
2017-07-20T19:25:58.307Z,4.57
2017-07-20T19:28:26.218Z,4.30
2017-07-20T19:30:53.858Z,4.70
2017-07-20T19:33:21.672Z,4.90
2017-07-20T19:35:49.618Z,4.40
2017-07-20T19:38:17.331Z,4.80
2017-07-20T19:40:46.912Z,4.75
2017-07-20T19:43:14.608Z,5.30
2017-07-20T19:45:42.225Z,5.40
2017-07-20T19:48:09.924Z,4.60
2017-07-20T19:50:37.641Z,5.27
2017-07-20T19:53:05.284Z,4.73
2017-07-20T19:55:32.937Z,5.33
2017-07-20T19:58:00.866Z,5.30
2017-07-20T20:00:28.499Z,5.00
2017-07-20T20:02:56.123Z,4.40
2017-07-20T20:05:23.813Z,4.70
2017-07-20T20:07:51.455Z,4.77
2017-07-20T20:10:19.134Z,5.33
2017-07-20T20:12:46.773Z,4.80
2017-07-20T20:15:14.472Z,5.10
2017-07-20T20:17:42.158Z,5.07
2017-07-20T20:20:09.869Z,5.20
2017-07-20T20:22:37.506Z,4.97
2017-07-20T20:25:05.487Z,5.07
2017-07-20T20:27:33.092Z,4.77
2017-07-20T20:30:00.847Z,4.70
2017-07-20T20:32:28.609Z,4.57
2017-07-20T20:34:56.223Z,5.47
2017-07-20T20:37:23.879Z,5.30
2017-07-20T20:39:51.526Z,5.03
2017-07-20T20:42:19.460Z,4.87
2017-07-20T20:44:47.073Z,5.70
2017-07-20T20:47:14.779Z,5.70
2017-07-20T20:49:42.445Z,5.23
2017-07-20T20:52:10.069Z,5.30
2017-07-20T20:54:37.711Z,5.10
2017-07-20T20:57:05.320Z,5.13
2017-07-20T20:59:33.252Z,5.67
2017-07-20T21:02:01.007Z,5.50
2017-07-20T21:04:28.702Z,6.00
2017-07-20T21:06:56.402Z,5.53
2017-07-20T21:09:24.066Z,5.10
2017-07-20T21:11:51.708Z,5.70
2017-07-20T21:14:19.358Z,7.37
2017-07-20T21:16:47.045Z,6.13
2017-07-20T21:19:14.679Z,6.67
2017-07-20T21:21:42.446Z,6.23
2017-07-20T21:24:10.086Z,7.03
2017-07-20T21:26:37.716Z,5.97
2017-07-20T21:29:05.454Z,6.13
2017-07-20T21:31:33.137Z,6.67
2017-07-20T21:34:00.800Z,6.03
2017-07-20T21:36:28.420Z,6.80
2017-07-20T21:38:56.243Z,6.00
2017-07-20T21:41:23.877Z,6.43
2017-07-20T21:43:51.535Z,5.83
2017-07-20T21:46:19.425Z,6.30
2017-07-20T21:48:47.100Z,6.60
2017-07-20T21:51:14.719Z,6.90
2017-07-20T21:53:42.635Z,6.57
2017-07-20T21:56:11.267Z,7.03
2017-07-20T21:58:38.905Z,7.60
2017-07-20T22:01:06.552Z,7.33
2017-07-20T22:03:34.171Z,7.43
2017-07-20T22:06:01.832Z,8.07
2017-07-20T22:08:29.509Z,7.83
2017-07-20T22:10:57.420Z,8.20
2017-07-20T22:13:25.031Z,8.00
2017-07-20T22:15:52.693Z,7.60
2017-07-20T22:18:20.372Z,6.80
2017-07-20T22:20:47.994Z,7.37
2017-07-20T22:23:15.677Z,7.13
2017-07-20T22:25:43.314Z,7.60
2017-07-20T22:28:11.275Z,7.00
2017-07-20T22:30:38.930Z,7.20
2017-07-20T22:33:06.569Z,7.27
2017-07-20T22:35:34.337Z,8.30
2017-07-20T22:38:01.980Z,8.70
2017-07-20T22:40:29.712Z,9.77
2017-07-20T22:42:57.356Z,8.60
2017-07-20T22:45:25.138Z,6.73
2017-07-20T22:47:52.909Z,6.97
2017-07-20T22:50:20.560Z,8.63
2017-07-20T22:52:48.241Z,8.27
2017-07-20T22:55:15.874Z,8.43
2017-07-20T22:57:43.557Z,7.77
2017-07-20T23:00:11.224Z,7.93
2017-07-20T23:02:38.914Z,8.03
2017-07-20T23:05:06.548Z,7.20
2017-07-20T23:07:34.156Z,8.10
2017-07-20T23:10:01.794Z,7.50
2017-07-20T23:12:29.426Z,8.43
2017-07-20T23:14:57.192Z,8.40
2017-07-20T23:17:24.801Z,8.70
2017-07-20T23:19:52.446Z,8.97
2017-07-20T23:22:20.074Z,9.20
2017-07-20T23:24:47.694Z,9.57
2017-07-20T23:27:15.456Z,8.90
2017-07-20T23:29:43.121Z,9.33
2017-07-20T23:32:10.762Z,9.40
2017-07-20T23:34:38.439Z,9.93
2017-07-20T23:37:06.074Z,9.43
2017-07-20T23:39:33.708Z,8.70
2017-07-20T23:42:01.344Z,9.90
2017-07-20T23:44:28.994Z,8.73
2017-07-20T23:46:56.610Z,8.93
2017-07-20T23:49:24.355Z,8.90
2017-07-20T23:51:51.972Z,9.17
2017-07-20T23:54:19.616Z,9.00
2017-07-20T23:56:47.243Z,9.60
2017-07-20T23:59:14.994Z,9.60
